Terminal Aerodrome Forecast
Issued by NWS

Home | Current Version | Previous Version | Text Only | Print | Product List | Glossary On
Versions: 1 2 3 4 5 6 7 8 9 10 11 12 13 14 15
000
FTAK31 PAJN 250500
TAFAJN
TAF
PAJN 250528Z 2506/2606 12006KT P6SM -SHRA FEW025 BKN040 OVC060
      TEMPO 2506/2510 12012G22KT 6SM -SHRA BR FEW003 BKN025 OVC035
     FM251000 09004KT P6SM -SHRA BKN025 OVC035
     FM251500 10005KT P6SM -SHRA BKN040 OVC060
     FM251800 10010KT 6SM -RA BR SCT010 OVC025
     FM260000 11008KT P6SM -RA BKN040 OVC050
     FM260300 11006KT P6SM -RA OVC025=

USA.gov is the U.S. government's official web portal to all federal, state and local government web resources and services.